sensor_id;sensor_type;location;lat;lon;timestamp;pressure;altitude;pressure_sealevel;temperature;humidity
7532;BME280;3807;49.030;8.714;2023-04-27T00:00:30;99442.56;;;14.20;54.41
7532;BME280;3807;49.030;8.714;2023-04-27T00:02:56;99433.16;;;14.21;54.13
7532;BME280;3807;49.030;8.714;2023-04-27T00:05:21;99432.38;;;14.19;54.34
7532;BME280;3807;49.030;8.714;2023-04-27T00:07:47;99431.69;;;14.15;54.33
7532;BME280;3807;49.030;8.714;2023-04-27T00:10:12;99426.09;;;14.07;54.91
7532;BME280;3807;49.030;8.714;2023-04-27T00:12:38;99427.56;;;14.13;54.58
7532;BME280;3807;49.030;8.714;2023-04-27T00:15:04;99418.28;;;14.10;54.33
7532;BME280;3807;49.030;8.714;2023-04-27T00:17:30;99415.19;;;14.03;55.00
7532;BME280;3807;49.030;8.714;2023-04-27T00:19:55;99415.41;;;13.99;54.79
7532;BME280;3807;49.030;8.714;2023-04-27T00:22:20;99419.81;;;13.95;54.67
7532;BME280;3807;49.030;8.714;2023-04-27T00:24:46;99413.19;;;13.91;55.23
7532;BME280;3807;49.030;8.714;2023-04-27T00:27:11;99418.22;;;13.93;54.92
7532;BME280;3807;49.030;8.714;2023-04-27T00:29:40;99419.75;;;13.97;54.75
7532;BME280;3807;49.030;8.714;2023-04-27T00:32:09;99408.22;;;13.88;55.24
7532;BME280;3807;49.030;8.714;2023-04-27T00:34:35;99407.31;;;13.89;55.43
7532;BME280;3807;49.030;8.714;2023-04-27T00:37:00;99399.16;;;13.81;55.30
7532;BME280;3807;49.030;8.714;2023-04-27T00:39:26;99399.91;;;13.83;54.89
7532;BME280;3807;49.030;8.714;2023-04-27T00:41:51;99398.25;;;13.82;55.04
7532;BME280;3807;49.030;8.714;2023-04-27T00:44:24;99401.84;;;13.78;55.12
7532;BME280;3807;49.030;8.714;2023-04-27T00:46:50;99410.75;;;13.69;55.45
7532;BME280;3807;49.030;8.714;2023-04-27T00:49:16;99405.72;;;13.68;54.99
7532;BME280;3807;49.030;8.714;2023-04-27T00:51:41;99402.25;;;13.69;55.12
7532;BME280;3807;49.030;8.714;2023-04-27T00:54:07;99409.16;;;13.67;55.25
7532;BME280;3807;49.030;8.714;2023-04-27T00:56:33;99400.88;;;13.62;54.96
7532;BME280;3807;49.030;8.714;2023-04-27T00:58:58;99398.53;;;13.57;55.22
7532;BME280;3807;49.030;8.714;2023-04-27T01:01:24;99404.59;;;13.54;55.19
7532;BME280;3807;49.030;8.714;2023-04-27T01:03:50;99412.34;;;13.53;55.30
7532;BME280;3807;49.030;8.714;2023-04-27T01:06:15;99414.13;;;13.51;54.93
7532;BME280;3807;49.030;8.714;2023-04-27T01:08:41;99409.28;;;13.45;55.34
7532;BME280;3807;49.030;8.714;2023-04-27T01:11:06;99411.09;;;13.43;55.12
7532;BME280;3807;49.030;8.714;2023-04-27T01:13:32;99404.25;;;13.43;55.32
7532;BME280;3807;49.030;8.714;2023-04-27T01:15:57;99418.81;;;13.41;55.19
7532;BME280;3807;49.030;8.714;2023-04-27T01:18:22;99414.66;;;13.39;55.27
7532;BME280;3807;49.030;8.714;2023-04-27T01:20:48;99414.81;;;13.36;55.26
7532;BME280;3807;49.030;8.714;2023-04-27T01:23:14;99419.22;;;13.32;55.37
7532;BME280;3807;49.030;8.714;2023-04-27T01:25:39;99415.78;;;13.33;55.59
7532;BME280;3807;49.030;8.714;2023-04-27T01:28:05;99420.31;;;13.26;55.74
7532;BME280;3807;49.030;8.714;2023-04-27T01:30:30;99412.75;;;13.23;55.60
7532;BME280;3807;49.030;8.714;2023-04-27T01:32:56;99419.72;;;13.20;55.52
7532;BME280;3807;49.030;8.714;2023-04-27T01:35:21;99417.34;;;13.15;55.67
7532;BME280;3807;49.030;8.714;2023-04-27T01:37:47;99416.78;;;13.08;55.86
7532;BME280;3807;49.030;8.714;2023-04-27T01:40:12;99412.75;;;13.03;55.79
7532;BME280;3807;49.030;8.714;2023-04-27T01:42:37;99416.09;;;13.05;55.92
7532;BME280;3807;49.030;8.714;2023-04-27T01:45:03;99409.16;;;13.07;55.75
7532;BME280;3807;49.030;8.714;2023-04-27T01:47:29;99407.63;;;13.03;55.78
7532;BME280;3807;49.030;8.714;2023-04-27T01:49:54;99401.91;;;12.98;55.78
7532;BME280;3807;49.030;8.714;2023-04-27T01:52:20;99413.84;;;12.97;55.98
7532;BME280;3807;49.030;8.714;2023-04-27T01:54:45;99405.47;;;12.94;55.88
7532;BME280;3807;49.030;8.714;2023-04-27T01:57:11;99413.91;;;12.96;55.70
7532;BME280;3807;49.030;8.714;2023-04-27T01:59:36;99409.03;;;12.90;55.81
7532;BME280;3807;49.030;8.714;2023-04-27T02:02:02;99412.50;;;12.88;55.76
7532;BME280;3807;49.030;8.714;2023-04-27T02:04:27;99415.16;;;12.85;55.79
7532;BME280;3807;49.030;8.714;2023-04-27T02:06:52;99420.53;;;12.79;56.02
7532;BME280;3807;49.030;8.714;2023-04-27T02:09:18;99414.53;;;12.80;55.92
7532;BME280;3807;49.030;8.714;2023-04-27T02:11:43;99411.22;;;12.78;56.10
7532;BME280;3807;49.030;8.714;2023-04-27T02:14:08;99412.34;;;12.71;56.03
7532;BME280;3807;49.030;8.714;2023-04-27T02:16:34;99416.63;;;12.71;56.22
7532;BME280;3807;49.030;8.714;2023-04-27T02:18:59;99421.03;;;12.67;56.45
7532;BME280;3807;49.030;8.714;2023-04-27T02:21:25;99427.06;;;12.66;56.61
7532;BME280;3807;49.030;8.714;2023-04-27T02:23:50;99427.94;;;12.65;56.43
7532;BME280;3807;49.030;8.714;2023-04-27T02:26:19;99428.00;;;12.63;56.53
7532;BME280;3807;49.030;8.714;2023-04-27T02:28:46;99426.28;;;12.64;56.27
7532;BME280;3807;49.030;8.714;2023-04-27T02:31:12;99432.16;;;12.66;56.55
7532;BME280;3807;49.030;8.714;2023-04-27T02:33:39;99429.72;;;12.63;56.44
7532;BME280;3807;49.030;8.714;2023-04-27T02:36:04;99428.25;;;12.57;56.49
7532;BME280;3807;49.030;8.714;2023-04-27T02:38:30;99429.13;;;12.56;56.76
7532;BME280;3807;49.030;8.714;2023-04-27T02:40:55;99425.06;;;12.52;56.60
7532;BME280;3807;49.030;8.714;2023-04-27T02:43:21;99435.44;;;12.48;56.90
7532;BME280;3807;49.030;8.714;2023-04-27T02:45:46;99432.94;;;12.46;56.83
7532;BME280;3807;49.030;8.714;2023-04-27T02:48:12;99431.50;;;12.61;56.36
7532;BME280;3807;49.030;8.714;2023-04-27T02:50:41;99430.03;;;12.55;56.31
7532;BME280;3807;49.030;8.714;2023-04-27T02:53:07;99421.59;;;12.53;56.71
7532;BME280;3807;49.030;8.714;2023-04-27T02:55:32;99422.13;;;12.39;56.68
7532;BME280;3807;49.030;8.714;2023-04-27T02:57:58;99436.69;;;12.37;57.08
7532;BME280;3807;49.030;8.714;2023-04-27T03:00:23;99433.97;;;12.42;57.00
7532;BME280;3807;49.030;8.714;2023-04-27T03:02:48;99443.41;;;12.40;57.00
7532;BME280;3807;49.030;8.714;2023-04-27T03:05:14;99439.13;;;12.40;56.63
7532;BME280;3807;49.030;8.714;2023-04-27T03:07:40;99441.97;;;12.33;56.82
7532;BME280;3807;49.030;8.714;2023-04-27T03:10:05;99432.53;;;12.35;56.63
7532;BME280;3807;49.030;8.714;2023-04-27T03:12:31;99436.87;;;12.33;56.93
7532;BME280;3807;49.030;8.714;2023-04-27T03:14:56;99437.66;;;12.35;56.71
7532;BME280;3807;49.030;8.714;2023-04-27T03:17:21;99435.44;;;12.26;56.87
7532;BME280;3807;49.030;8.714;2023-04-27T03:19:47;99432.78;;;12.29;56.97
7532;BME280;3807;49.030;8.714;2023-04-27T03:22:15;99423.38;;;12.29;56.65
7532;BME280;3807;49.030;8.714;2023-04-27T03:24:40;99432.78;;;12.29;56.75
7532;BME280;3807;49.030;8.714;2023-04-27T03:27:06;99431.28;;;12.23;57.22
7532;BME280;3807;49.030;8.714;2023-04-27T03:29:31;99436.28;;;12.26;56.70
7532;BME280;3807;49.030;8.714;2023-04-27T03:31:57;99433.72;;;12.26;56.86
7532;BME280;3807;49.030;8.714;2023-04-27T03:34:22;99432.41;;;12.16;56.87
7532;BME280;3807;49.030;8.714;2023-04-27T03:36:48;99429.03;;;12.15;57.29
7532;BME280;3807;49.030;8.714;2023-04-27T03:39:13;99438.53;;;12.12;57.24
7532;BME280;3807;49.030;8.714;2023-04-27T03:41:38;99435.25;;;12.08;57.17
7532;BME280;3807;49.030;8.714;2023-04-27T03:44:04;99430.75;;;12.15;57.12
7532;BME280;3807;49.030;8.714;2023-04-27T03:46:30;99440.16;;;12.13;57.12
7532;BME280;3807;49.030;8.714;2023-04-27T03:48:55;99438.84;;;12.03;57.43
7532;BME280;3807;49.030;8.714;2023-04-27T03:51:20;99445.56;;;12.05;57.32
7532;BME280;3807;49.030;8.714;2023-04-27T03:53:46;99444.63;;;12.08;57.22
7532;BME280;3807;49.030;8.714;2023-04-27T03:56:11;99448.12;;;12.05;57.15
7532;BME280;3807;49.030;8.714;2023-04-27T03:58:36;99444.75;;;12.05;57.03
7532;BME280;3807;49.030;8.714;2023-04-27T04:01:02;99441.41;;;12.03;57.23
7532;BME280;3807;49.030;8.714;2023-04-27T04:03:27;99431.19;;;12.03;56.89
7532;BME280;3807;49.030;8.714;2023-04-27T04:05:52;99431.88;;;12.08;57.01
7532;BME280;3807;49.030;8.714;2023-04-27T04:08:18;99431.19;;;12.03;56.96
7532;BME280;3807;49.030;8.714;2023-04-27T04:10:43;99433.19;;;11.96;57.03
7532;BME280;3807;49.030;8.714;2023-04-27T04:13:09;99441.59;;;11.98;56.98
7532;BME280;3807;49.030;8.714;2023-04-27T04:15:34;99441.69;;;11.95;56.85
7532;BME280;3807;49.030;8.714;2023-04-27T04:17:59;99445.94;;;11.96;56.93
7532;BME280;3807;49.030;8.714;2023-04-27T04:20:25;99440.03;;;11.94;56.98
7532;BME280;3807;49.030;8.714;2023-04-27T04:22:50;99441.88;;;11.90;57.00
7532;BME280;3807;49.030;8.714;2023-04-27T04:25:16;99446.25;;;11.87;57.10
7532;BME280;3807;49.030;8.714;2023-04-27T04:27:42;99448.00;;;11.86;57.09
7532;BME280;3807;49.030;8.714;2023-04-27T04:30:07;99445.63;;;11.80;57.40
7532;BME280;3807;49.030;8.714;2023-04-27T04:32:33;99444.59;;;11.86;57.05
7532;BME280;3807;49.030;8.714;2023-04-27T04:35:02;99447.28;;;11.81;57.18
7532;BME280;3807;49.030;8.714;2023-04-27T04:37:29;99439.44;;;11.87;57.03
7532;BME280;3807;49.030;8.714;2023-04-27T04:39:54;99446.31;;;11.85;57.04
7532;BME280;3807;49.030;8.714;2023-04-27T04:42:19;99444.84;;;11.78;57.35
7532;BME280;3807;49.030;8.714;2023-04-27T04:44:45;99434.59;;;11.80;57.04
7532;BME280;3807;49.030;8.714;2023-04-27T04:47:11;99440.62;;;11.77;57.36
7532;BME280;3807;49.030;8.714;2023-04-27T04:49:37;99450.06;;;11.75;56.95
7532;BME280;3807;49.030;8.714;2023-04-27T04:52:02;99445.72;;;11.77;57.15
7532;BME280;3807;49.030;8.714;2023-04-27T04:54:30;99444.72;;;11.81;56.99
7532;BME280;3807;49.030;8.714;2023-04-27T04:56:56;99449.19;;;11.76;57.04
7532;BME280;3807;49.030;8.714;2023-04-27T04:59:23;99452.63;;;11.75;57.00
7532;BME280;3807;49.030;8.714;2023-04-27T05:01:48;99451.91;;;11.72;57.13
7532;BME280;3807;49.030;8.714;2023-04-27T05:04:14;99454.66;;;11.65;57.33
7532;BME280;3807;49.030;8.714;2023-04-27T05:06:39;99457.25;;;11.64;57.57
7532;BME280;3807;49.030;8.714;2023-04-27T05:09:05;99448.75;;;11.65;57.45
7532;BME280;3807;49.030;8.714;2023-04-27T05:11:30;99448.75;;;11.65;57.64
7532;BME280;3807;49.030;8.714;2023-04-27T05:13:56;99455.44;;;11.67;57.43
7532;BME280;3807;49.030;8.714;2023-04-27T05:16:21;99446.81;;;11.72;57.59
7532;BME280;3807;49.030;8.714;2023-04-27T05:18:46;99450.84;;;11.77;57.34
7532;BME280;3807;49.030;8.714;2023-04-27T05:21:13;99456.94;;;11.73;57.83
7532;BME280;3807;49.030;8.714;2023-04-27T05:23:39;99452.72;;;11.72;57.21
7532;BME280;3807;49.030;8.714;2023-04-27T05:26:14;99461.63;;;11.60;57.99
7532;BME280;3807;49.030;8.714;2023-04-27T05:28:40;99461.63;;;11.60;57.80
7532;BME280;3807;49.030;8.714;2023-04-27T05:31:05;99478.28;;;11.71;57.61
7532;BME280;3807;49.030;8.714;2023-04-27T05:33:31;99467.41;;;11.65;57.75
7532;BME280;3807;49.030;8.714;2023-04-27T05:35:56;99467.94;;;11.75;57.64
7532;BME280;3807;49.030;8.714;2023-04-27T05:38:21;99470.41;;;11.77;57.43
7532;BME280;3807;49.030;8.714;2023-04-27T05:40:53;99470.91;;;11.63;57.83
7532;BME280;3807;49.030;8.714;2023-04-27T05:43:18;99486.16;;;11.64;57.93
7532;BME280;3807;49.030;8.714;2023-04-27T05:45:43;99482.91;;;11.84;57.28
7532;BME280;3807;49.030;8.714;2023-04-27T05:48:09;99475.59;;;11.75;57.45
7532;BME280;3807;49.030;8.714;2023-04-27T05:50:34;99477.25;;;11.76;57.42
7532;BME280;3807;49.030;8.714;2023-04-27T05:53:00;99481.66;;;11.71;57.57
7532;BME280;3807;49.030;8.714;2023-04-27T05:55:25;99484.22;;;11.71;57.87
7532;BME280;3807;49.030;8.714;2023-04-27T05:57:50;99478.91;;;11.77;57.29
7532;BME280;3807;49.030;8.714;2023-04-27T06:00:16;99482.91;;;11.84;57.56
7532;BME280;3807;49.030;8.714;2023-04-27T06:02:41;99482.25;;;11.79;57.42
7532;BME280;3807;49.030;8.714;2023-04-27T06:05:07;99484.69;;;11.82;57.55
7532;BME280;3807;49.030;8.714;2023-04-27T06:07:33;99488.09;;;11.81;57.46
7532;BME280;3807;49.030;8.714;2023-04-27T06:09:58;99489.34;;;11.95;57.03
7532;BME280;3807;49.030;8.714;2023-04-27T06:12:23;99497.22;;;11.88;56.96
7532;BME280;3807;49.030;8.714;2023-04-27T06:14:48;99495.75;;;11.81;57.61
7532;BME280;3807;49.030;8.714;2023-04-27T06:17:14;99503.69;;;11.74;57.69
7532;BME280;3807;49.030;8.714;2023-04-27T06:19:39;99503.25;;;11.62;58.21
7532;BME280;3807;49.030;8.714;2023-04-27T06:22:05;99504.91;;;11.63;58.30
7532;BME280;3807;49.030;8.714;2023-04-27T06:24:30;99505.81;;;11.61;58.29
7532;BME280;3807;49.030;8.714;2023-04-27T06:26:55;99508.63;;;11.78;58.02
7532;BME280;3807;49.030;8.714;2023-04-27T06:29:21;99510.16;;;11.84;57.76
7532;BME280;3807;49.030;8.714;2023-04-27T06:31:46;99510.19;;;11.82;57.70
7532;BME280;3807;49.030;8.714;2023-04-27T06:34:12;99505.84;;;11.86;57.84
7532;BME280;3807;49.030;8.714;2023-04-27T06:36:37;99509.22;;;11.86;57.47
7532;BME280;3807;49.030;8.714;2023-04-27T06:39:02;99512.22;;;11.98;57.41
7532;BME280;3807;49.030;8.714;2023-04-27T06:41:28;99520.78;;;11.72;58.16
7532;BME280;3807;49.030;8.714;2023-04-27T06:43:53;99516.03;;;11.61;58.27
7532;BME280;3807;49.030;8.714;2023-04-27T06:46:19;99519.34;;;11.89;57.78
7532;BME280;3807;49.030;8.714;2023-04-27T06:48:44;99522.66;;;11.91;57.73
7532;BME280;3807;49.030;8.714;2023-04-27T06:51:10;99523.75;;;11.84;57.81
7532;BME280;3807;49.030;8.714;2023-04-27T06:53:36;99524.69;;;12.05;57.40
7532;BME280;3807;49.030;8.714;2023-04-27T06:56:02;99524.62;;;11.83;57.93
7532;BME280;3807;49.030;8.714;2023-04-27T06:58:27;99529.81;;;12.05;57.42
7532;BME280;3807;49.030;8.714;2023-04-27T07:00:53;99524.56;;;11.85;57.88
7532;BME280;3807;49.030;8.714;2023-04-27T07:03:19;99523.97;;;12.02;57.71
7532;BME280;3807;49.030;8.714;2023-04-27T07:05:46;99517.66;;;11.88;57.95
7532;BME280;3807;49.030;8.714;2023-04-27T07:08:12;99517.22;;;12.01;57.69
7532;BME280;3807;49.030;8.714;2023-04-27T07:10:37;99514.09;;;12.16;57.21
7532;BME280;3807;49.030;8.714;2023-04-27T07:13:02;99509.56;;;12.01;57.85
7532;BME280;3807;49.030;8.714;2023-04-27T07:15:29;99517.16;;;11.77;58.40
7532;BME280;3807;49.030;8.714;2023-04-27T07:17:55;99520.37;;;12.07;57.68
7532;BME280;3807;49.030;8.714;2023-04-27T07:20:20;99527.94;;;12.10;57.55
7532;BME280;3807;49.030;8.714;2023-04-27T07:22:46;99529.19;;;11.99;57.96
7532;BME280;3807;49.030;8.714;2023-04-27T07:25:11;99520.37;;;12.07;57.77
7532;BME280;3807;49.030;8.714;2023-04-27T07:27:37;99517.62;;;12.13;57.58
7532;BME280;3807;49.030;8.714;2023-04-27T07:30:03;99519.00;;;12.22;57.39
7532;BME280;3807;49.030;8.714;2023-04-27T07:32:30;99511.41;;;12.21;57.28
7532;BME280;3807;49.030;8.714;2023-04-27T07:34:56;99511.41;;;12.21;57.29
7532;BME280;3807;49.030;8.714;2023-04-27T07:37:22;99521.63;;;12.43;56.11
7532;BME280;3807;49.030;8.714;2023-04-27T07:39:49;99522.47;;;12.20;57.35
7532;BME280;3807;49.030;8.714;2023-04-27T07:42:16;99517.88;;;12.29;56.72
7532;BME280;3807;49.030;8.714;2023-04-27T07:44:42;99514.19;;;12.58;55.47
7532;BME280;3807;49.030;8.714;2023-04-27T07:47:08;99519.91;;;12.65;55.38
7532;BME280;3807;49.030;8.714;2023-04-27T07:49:33;99514.03;;;12.63;55.09
7532;BME280;3807;49.030;8.714;2023-04-27T07:51:59;99515.34;;;12.73;56.64
7532;BME280;3807;49.030;8.714;2023-04-27T07:54:25;99516.19;;;12.74;56.91
7532;BME280;3807;49.030;8.714;2023-04-27T07:56:50;99513.13;;;12.86;57.25
7532;BME280;3807;49.030;8.714;2023-04-27T07:59:16;99508.13;;;12.83;57.32
7532;BME280;3807;49.030;8.714;2023-04-27T08:01:41;99501.12;;;12.88;57.56
7532;BME280;3807;49.030;8.714;2023-04-27T08:04:07;99503.72;;;12.86;57.10
7532;BME280;3807;49.030;8.714;2023-04-27T08:06:32;99505.41;;;12.87;57.13
7532;BME280;3807;49.030;8.714;2023-04-27T08:08:57;99499.13;;;12.74;57.47
7532;BME280;3807;49.030;8.714;2023-04-27T08:11:25;99500.50;;;13.03;56.83
7532;BME280;3807;49.030;8.714;2023-04-27T08:13:50;99498.59;;;13.08;57.22
7532;BME280;3807;49.030;8.714;2023-04-27T08:16:16;99500.00;;;13.16;56.91
7532;BME280;3807;49.030;8.714;2023-04-27T08:18:42;99491.69;;;13.10;56.89
7532;BME280;3807;49.030;8.714;2023-04-27T08:21:08;99501.62;;;12.96;57.35
7532;BME280;3807;49.030;8.714;2023-04-27T08:23:33;99498.87;;;13.23;56.68
7532;BME280;3807;49.030;8.714;2023-04-27T08:26:00;99499.59;;;13.26;56.44
7532;BME280;3807;49.030;8.714;2023-04-27T08:28:26;99496.72;;;13.34;56.65
7532;BME280;3807;49.030;8.714;2023-04-27T08:30:51;99498.25;;;13.38;56.19
7532;BME280;3807;49.030;8.714;2023-04-27T08:33:16;99495.69;;;13.38;55.92
7532;BME280;3807;49.030;8.714;2023-04-27T08:35:42;99499.06;;;13.59;55.22
7532;BME280;3807;49.030;8.714;2023-04-27T08:38:07;99497.16;;;13.64;55.44
7532;BME280;3807;49.030;8.714;2023-04-27T08:40:33;99494.94;;;13.36;54.00
7532;BME280;3807;49.030;8.714;2023-04-27T08:42:58;99488.47;;;13.48;55.84
7532;BME280;3807;49.030;8.714;2023-04-27T08:45:26;99488.06;;;13.57;55.67
7532;BME280;3807;49.030;8.714;2023-04-27T08:47:52;99490.34;;;13.63;55.33
7532;BME280;3807;49.030;8.714;2023-04-27T08:50:18;99492.03;;;13.64;55.02
7532;BME280;3807;49.030;8.714;2023-04-27T08:52:47;99484.44;;;13.81;53.86
7532;BME280;3807;49.030;8.714;2023-04-27T08:55:13;99483.09;;;13.73;55.00
7532;BME280;3807;49.030;8.714;2023-04-27T08:57:38;99487.00;;;13.81;55.23
7532;BME280;3807;49.030;8.714;2023-04-27T09:00:05;99492.47;;;14.12;54.77
7532;BME280;3807;49.030;8.714;2023-04-27T09:02:44;99496.41;;;14.19;54.41
7532;BME280;3807;49.030;8.714;2023-04-27T09:05:21;99486.94;;;14.21;54.76
7532;BME280;3807;49.030;8.714;2023-04-27T09:08:00;99494.84;;;14.16;53.97
7532;BME280;3807;49.030;8.714;2023-04-27T09:10:26;99496.97;;;14.25;53.19
7532;BME280;3807;49.030;8.714;2023-04-27T09:12:59;99494.00;;;14.35;54.22
7532;BME280;3807;49.030;8.714;2023-04-27T09:15:26;99495.09;;;14.48;53.02
7532;BME280;3807;49.030;8.714;2023-04-27T09:17:53;99497.37;;;14.35;52.94
7532;BME280;3807;49.030;8.714;2023-04-27T09:20:20;99505.16;;;14.34;53.58
7532;BME280;3807;49.030;8.714;2023-04-27T09:22:51;99500.59;;;14.40;53.99
7532;BME280;3807;49.030;8.714;2023-04-27T09:25:25;99494.31;;;14.46;53.84
7532;BME280;3807;49.030;8.714;2023-04-27T09:27:50;99497.87;;;14.62;52.43
7532;BME280;3807;49.030;8.714;2023-04-27T09:30:16;99509.06;;;14.79;52.63
7532;BME280;3807;49.030;8.714;2023-04-27T09:33:08;99509.44;;;14.88;52.97
7532;BME280;3807;49.030;8.714;2023-04-27T09:35:33;99511.47;;;14.82;53.17
7532;BME280;3807;49.030;8.714;2023-04-27T09:37:59;99499.84;;;14.74;53.19
7532;BME280;3807;49.030;8.714;2023-04-27T09:40:26;99495.94;;;14.85;53.78
7532;BME280;3807;49.030;8.714;2023-04-27T09:42:54;99493.84;;;14.93;53.13
7532;BME280;3807;49.030;8.714;2023-04-27T09:45:22;99492.84;;;15.13;52.66
7532;BME280;3807;49.030;8.714;2023-04-27T09:47:47;99492.41;;;15.05;49.64
7532;BME280;3807;49.030;8.714;2023-04-27T09:50:13;99489.25;;;14.82;48.87
7532;BME280;3807;49.030;8.714;2023-04-27T09:52:38;99488.63;;;14.94;53.19
7532;BME280;3807;49.030;8.714;2023-04-27T09:55:08;99488.41;;;15.16;51.68
7532;BME280;3807;49.030;8.714;2023-04-27T09:57:50;99477.38;;;15.32;50.89
7532;BME280;3807;49.030;8.714;2023-04-27T10:03:28;99484.13;;;15.34;52.44
7532;BME280;3807;49.030;8.714;2023-04-27T10:08:49;99490.37;;;15.79;50.57
7532;BME280;3807;49.030;8.714;2023-04-27T10:11:16;99498.75;;;15.83;50.24
7532;BME280;3807;49.030;8.714;2023-04-27T10:13:53;99489.59;;;15.94;49.56
7532;BME280;3807;49.030;8.714;2023-04-27T10:16:19;99484.59;;;15.91;49.30
7532;BME280;3807;49.030;8.714;2023-04-27T10:18:54;99487.31;;;15.88;48.52
7532;BME280;3807;49.030;8.714;2023-04-27T10:21:20;99495.63;;;15.93;50.06
7532;BME280;3807;49.030;8.714;2023-04-27T10:23:47;99485.38;;;16.09;49.79
7532;BME280;3807;49.030;8.714;2023-04-27T10:26:25;99481.97;;;16.40;48.33
7532;BME280;3807;49.030;8.714;2023-04-27T10:29:04;99488.31;;;16.49;47.84
7532;BME280;3807;49.030;8.714;2023-04-27T10:31:31;99482.53;;;16.61;48.66
7532;BME280;3807;49.030;8.714;2023-04-27T10:34:14;99484.53;;;16.56;47.27
7532;BME280;3807;49.030;8.714;2023-04-27T10:36:40;99473.66;;;16.67;49.26
7532;BME280;3807;49.030;8.714;2023-04-27T10:39:31;99474.87;;;16.76;48.84
7532;BME280;3807;49.030;8.714;2023-04-27T10:41:58;99474.87;;;16.76;48.94
7532;BME280;3807;49.030;8.714;2023-04-27T10:44:26;99478.94;;;16.80;47.94
7532;BME280;3807;49.030;8.714;2023-04-27T10:46:53;99482.53;;;16.77;48.65
7532;BME280;3807;49.030;8.714;2023-04-27T10:49:20;99477.81;;;17.00;49.14
7532;BME280;3807;49.030;8.714;2023-04-27T10:51:46;99475.34;;;16.98;46.27
7532;BME280;3807;49.030;8.714;2023-04-27T10:54:12;99477.22;;;17.25;47.63
7532;BME280;3807;49.030;8.714;2023-04-27T10:56:37;99470.78;;;17.32;48.42
7532;BME280;3807;49.030;8.714;2023-04-27T10:59:03;99466.28;;;17.35;48.43
7532;BME280;3807;49.030;8.714;2023-04-27T11:01:29;99466.75;;;17.56;48.09
7532;BME280;3807;49.030;8.714;2023-04-27T11:03:56;99462.88;;;17.63;46.12
7532;BME280;3807;49.030;8.714;2023-04-27T11:06:22;99472.09;;;17.53;47.95
7532;BME280;3807;49.030;8.714;2023-04-27T11:08:47;99467.31;;;17.61;46.13
7532;BME280;3807;49.030;8.714;2023-04-27T11:11:13;99466.09;;;17.67;48.00
7532;BME280;3807;49.030;8.714;2023-04-27T11:13:39;99470.44;;;17.95;47.12
7532;BME280;3807;49.030;8.714;2023-04-27T11:16:04;99463.66;;;17.80;47.55
7532;BME280;3807;49.030;8.714;2023-04-27T11:18:31;99457.00;;;18.04;47.17
7532;BME280;3807;49.030;8.714;2023-04-27T11:21:19;99455.00;;;18.22;47.05
7532;BME280;3807;49.030;8.714;2023-04-27T11:23:46;99461.09;;;18.21;46.59
7532;BME280;3807;49.030;8.714;2023-04-27T11:26:12;99460.47;;;18.18;45.56
7532;BME280;3807;49.030;8.714;2023-04-27T11:28:42;99464.84;;;18.30;47.03
7532;BME280;3807;49.030;8.714;2023-04-27T11:31:08;99470.94;;;18.56;46.79
7532;BME280;3807;49.030;8.714;2023-04-27T11:33:33;99462.44;;;18.41;47.20
7532;BME280;3807;49.030;8.714;2023-04-27T11:35:59;99463.19;;;18.56;47.31
7532;BME280;3807;49.030;8.714;2023-04-27T11:38:25;99459.16;;;18.79;46.70
7532;BME280;3807;49.030;8.714;2023-04-27T11:41:02;99458.94;;;18.82;46.58
7532;BME280;3807;49.030;8.714;2023-04-27T11:43:28;99447.84;;;18.94;46.40
7532;BME280;3807;49.030;8.714;2023-04-27T11:45:55;99444.53;;;19.05;44.81
7532;BME280;3807;49.030;8.714;2023-04-27T11:48:24;99453.09;;;18.93;46.22
7532;BME280;3807;49.030;8.714;2023-04-27T11:50:51;99444.66;;;19.29;43.42
7532;BME280;3807;49.030;8.714;2023-04-27T11:53:28;99443.09;;;19.26;45.60
7532;BME280;3807;49.030;8.714;2023-04-27T11:55:53;99441.03;;;19.19;45.95
7532;BME280;3807;49.030;8.714;2023-04-27T11:58:19;99437.34;;;19.36;45.72
7532;BME280;3807;49.030;8.714;2023-04-27T12:00:45;99433.06;;;19.35;45.31
7532;BME280;3807;49.030;8.714;2023-04-27T12:03:11;99431.63;;;19.69;43.89
7532;BME280;3807;49.030;8.714;2023-04-27T12:05:46;99434.94;;;19.71;45.03
7532;BME280;3807;49.030;8.714;2023-04-27T12:08:12;99427.31;;;19.93;45.21
7532;BME280;3807;49.030;8.714;2023-04-27T12:10:38;99431.09;;;20.13;43.31
7532;BME280;3807;49.030;8.714;2023-04-27T12:13:04;99427.41;;;19.68;45.50
7532;BME280;3807;49.030;8.714;2023-04-27T12:15:29;99431.22;;;19.75;45.31
7532;BME280;3807;49.030;8.714;2023-04-27T12:17:54;99429.22;;;20.15;44.90
7532;BME280;3807;49.030;8.714;2023-04-27T12:20:20;99425.19;;;20.11;44.86
7532;BME280;3807;49.030;8.714;2023-04-27T12:22:45;99421.97;;;20.20;44.93
7532;BME280;3807;49.030;8.714;2023-04-27T12:25:11;99420.09;;;19.98;46.05
7532;BME280;3807;49.030;8.714;2023-04-27T12:27:37;99419.97;;;20.24;44.79
7532;BME280;3807;49.030;8.714;2023-04-27T12:30:02;99415.13;;;19.95;46.73
7532;BME280;3807;49.030;8.714;2023-04-27T12:32:28;99416.13;;;20.06;45.90
7532;BME280;3807;49.030;8.714;2023-04-27T12:34:54;99419.97;;;20.24;45.84
7532;BME280;3807;49.030;8.714;2023-04-27T12:37:19;99410.41;;;20.37;44.31
7532;BME280;3807;49.030;8.714;2023-04-27T12:39:46;99397.75;;;20.81;44.45
7532;BME280;3807;49.030;8.714;2023-04-27T12:42:11;99401.41;;;20.78;44.88
7532;BME280;3807;49.030;8.714;2023-04-27T12:44:36;99405.84;;;20.76;43.49
7532;BME280;3807;49.030;8.714;2023-04-27T12:47:02;99400.09;;;20.49;43.46
7532;BME280;3807;49.030;8.714;2023-04-27T12:49:28;99410.66;;;20.69;42.86
7532;BME280;3807;49.030;8.714;2023-04-27T12:51:53;99403.19;;;21.00;42.62
7532;BME280;3807;49.030;8.714;2023-04-27T12:54:21;99399.31;;;21.06;43.29
7532;BME280;3807;49.030;8.714;2023-04-27T12:56:46;99400.84;;;21.20;40.81
7532;BME280;3807;49.030;8.714;2023-04-27T12:59:11;99396.75;;;21.28;40.27
7532;BME280;3807;49.030;8.714;2023-04-27T13:01:37;99399.59;;;21.36;40.91
7532;BME280;3807;49.030;8.714;2023-04-27T13:04:03;99397.66;;;21.72;42.85
7532;BME280;3807;49.030;8.714;2023-04-27T13:06:30;99399.34;;;21.73;38.78
7532;BME280;3807;49.030;8.714;2023-04-27T13:08:56;99391.09;;;21.57;42.72
7532;BME280;3807;49.030;8.714;2023-04-27T13:11:22;99390.59;;;21.74;42.73
7532;BME280;3807;49.030;8.714;2023-04-27T13:13:48;99393.16;;;21.85;42.59
7532;BME280;3807;49.030;8.714;2023-04-27T13:16:13;99396.47;;;21.87;42.84
7532;BME280;3807;49.030;8.714;2023-04-27T13:18:40;99381.72;;;21.99;42.44
7532;BME280;3807;49.030;8.714;2023-04-27T13:21:06;99378.56;;;22.28;40.18
7532;BME280;3807;49.030;8.714;2023-04-27T13:23:32;99384.78;;;22.04;42.34